Time;durP1;ratioP1;P1;durP2;ratioP2;P2;SDS_P1;SDS_P2;PMS_P1;PMS_P2;Temp;Humidity;BMP_temperature;BMP_pressure;BME280_temperature;BME280_humidity;BME280_pressure;Samples;Min_cycle;Max_cycle;Signal;HPM_P1;HPM_P2
2023/09/26 00:00:20;;;;;;;0.40;0.40;;;14.00;99.90;;;;;;5095184;28;20047;-76
2023/09/26 00:02:47;;;;;;;0.38;0.38;;;13.90;99.90;;;;;;5094310;28;20051;-75
2023/09/26 00:05:13;;;;;;;0.30;0.30;;;13.90;99.90;;;;;;5095088;28;20047;-73
2023/09/26 00:07:39;;;;;;;0.47;0.47;;;13.80;99.90;;;;;;5094758;28;20058;-74
2023/09/26 00:10:06;;;;;;;0.40;0.40;;;13.80;99.90;;;;;;5095389;28;20391;-74
2023/09/26 00:12:32;;;;;;;0.35;0.35;;;13.70;99.90;;;;;;5094944;28;20048;-72
2023/09/26 00:14:58;;;;;;;0.40;0.40;;;13.70;99.90;;;;;;5095150;28;20123;-74
2023/09/26 00:17:24;;;;;;;0.57;0.57;;;13.60;99.90;;;;;;5094888;28;20075;-73
2023/09/26 00:19:50;;;;;;;0.50;0.50;;;13.60;99.90;;;;;;5094878;28;20036;-74
2023/09/26 00:22:15;;;;;;;0.60;0.60;;;13.50;99.90;;;;;;5094606;28;20085;-72
2023/09/26 00:24:41;;;;;;;0.50;0.50;;;13.50;99.90;;;;;;5094755;28;20040;-75
2023/09/26 00:27:07;;;;;;;0.50;0.50;;;13.50;99.90;;;;;;5094664;28;20491;-74
2023/09/26 00:29:33;;;;;;;0.40;0.40;;;13.40;99.90;;;;;;5094830;28;20173;-74
2023/09/26 00:31:59;;;;;;;0.40;0.40;;;13.40;99.90;;;;;;5094606;28;20146;-73
2023/09/26 00:34:25;;;;;;;0.40;0.40;;;13.30;99.90;;;;;;5094503;28;20050;-74
2023/09/26 00:36:51;;;;;;;0.50;0.50;;;13.30;99.90;;;;;;5094437;28;20048;-75
2023/09/26 00:39:17;;;;;;;0.43;0.43;;;13.20;99.90;;;;;;5094451;28;20054;-75
2023/09/26 00:41:43;;;;;;;0.40;0.40;;;13.20;99.90;;;;;;5094293;28;20266;-74
2023/09/26 00:44:11;;;;;;;0.50;0.50;;;13.10;99.90;;;;;;5094355;28;20094;-73
2023/09/26 00:46:36;;;;;;;0.43;0.43;;;13.10;99.90;;;;;;5094108;28;20150;-74
2023/09/26 00:49:03;;;;;;;0.57;0.40;;;13.10;99.90;;;;;;5094418;28;20062;-73
2023/09/26 00:51:30;;;;;;;0.40;0.40;;;13.00;99.90;;;;;;5093902;28;20044;-73
2023/09/26 00:53:56;;;;;;;0.43;0.43;;;13.00;99.90;;;;;;5094188;28;20043;-73
2023/09/26 00:56:23;;;;;;;0.60;0.60;;;12.90;99.90;;;;;;5094776;28;20102;-73
2023/09/26 00:58:49;;;;;;;0.70;0.70;;;12.90;99.90;;;;;;5094163;28;20127;-76
2023/09/26 01:01:15;;;;;;;0.40;0.40;;;12.90;99.90;;;;;;5094100;28;20122;-72
2023/09/26 01:03:44;;;;;;;0.50;0.50;;;12.80;99.90;;;;;;5094054;28;20062;-74
2023/09/26 01:06:10;;;;;;;0.50;0.50;;;12.80;99.90;;;;;;5093718;28;20047;-73
2023/09/26 01:08:37;;;;;;;0.40;0.40;;;12.80;99.90;;;;;;5093770;28;20048;-74
2023/09/26 01:11:03;;;;;;;0.35;0.35;;;12.70;99.90;;;;;;5094295;28;20118;-74
2023/09/26 01:13:29;;;;;;;0.50;0.50;;;12.70;99.90;;;;;;5093902;28;20032;-75
2023/09/26 01:15:54;;;;;;;0.50;0.50;;;12.70;99.90;;;;;;5093936;28;20486;-73
2023/09/26 01:18:23;;;;;;;0.50;0.50;;;12.70;99.90;;;;;;5093949;28;20032;-72
2023/09/26 01:20:49;;;;;;;0.50;0.50;;;12.70;99.90;;;;;;5093722;28;20169;-73
2023/09/26 01:23:16;;;;;;;0.50;0.50;;;12.70;99.90;;;;;;5093803;28;20078;-75
2023/09/26 01:25:42;;;;;;;0.40;0.40;;;12.60;99.90;;;;;;5093446;28;20031;-75
2023/09/26 01:28:10;;;;;;;0.98;0.88;;;12.60;99.90;;;;;;5093643;28;20035;-74
2023/09/26 01:30:37;;;;;;;0.40;0.40;;;12.60;99.90;;;;;;5093689;28;20032;-74
2023/09/26 01:33:04;;;;;;;0.60;0.60;;;12.50;99.90;;;;;;5093157;28;20101;-75
2023/09/26 01:35:30;;;;;;;0.40;0.40;;;12.50;99.90;;;;;;5093625;28;20062;-73
2023/09/26 01:37:56;;;;;;;0.50;0.50;;;12.50;99.90;;;;;;5094024;28;20051;-75
2023/09/26 01:40:22;;;;;;;0.50;0.50;;;12.40;99.90;;;;;;5093430;28;20409;-75
2023/09/26 01:42:47;;;;;;;0.40;0.40;;;12.40;99.90;;;;;;5093905;28;20036;-75
2023/09/26 01:45:13;;;;;;;0.60;0.60;;;12.40;99.90;;;;;;5093538;28;20044;-73
2023/09/26 01:47:47;;;;;;;0.65;0.65;;;12.40;99.90;;;;;;5093724;28;20055;-73
2023/09/26 01:50:14;;;;;;;0.85;0.75;;;12.40;99.90;;;;;;5093332;28;20036;-73
2023/09/26 01:52:40;;;;;;;0.50;0.50;;;12.40;99.90;;;;;;5093493;28;20476;-75
2023/09/26 01:55:07;;;;;;;0.50;0.50;;;12.40;99.90;;;;;;5093484;28;20073;-76
2023/09/26 01:57:33;;;;;;;0.63;0.63;;;12.40;99.90;;;;;;5092226;28;20059;-74
2023/09/26 02:00:10;;;;;;;0.70;0.70;;;12.40;99.90;;;;;;5093446;28;20032;-72
2023/09/26 02:02:44;;;;;;;0.40;0.40;;;12.40;99.90;;;;;;5093367;28;20282;-75
2023/09/26 02:05:11;;;;;;;0.50;0.50;;;12.40;99.90;;;;;;5093861;28;20055;-74
2023/09/26 02:07:37;;;;;;;0.40;0.40;;;12.40;99.90;;;;;;5093260;28;20101;-76
2023/09/26 02:10:04;;;;;;;0.83;0.83;;;12.40;99.90;;;;;;5093254;28;20472;-73
2023/09/26 02:12:31;;;;;;;0.55;0.52;;;12.40;99.90;;;;;;5093349;28;20044;-74
2023/09/26 02:14:57;;;;;;;0.40;0.40;;;12.30;99.90;;;;;;5093388;28;20048;-72
2023/09/26 02:17:22;;;;;;;0.40;0.40;;;12.30;99.90;;;;;;5092964;28;20075;-73
2023/09/26 02:19:48;;;;;;;0.50;0.50;;;12.30;99.90;;;;;;5093720;28;20440;-73
2023/09/26 02:22:14;;;;;;;0.50;0.50;;;12.30;99.90;;;;;;5093240;28;20410;-72
2023/09/26 02:24:39;;;;;;;0.40;0.40;;;12.30;99.90;;;;;;5093208;28;20133;-73
2023/09/26 02:27:05;;;;;;;0.40;0.40;;;12.30;99.90;;;;;;5093211;28;20061;-73
2023/09/26 02:29:31;;;;;;;0.32;0.32;;;12.30;99.90;;;;;;5093122;28;20043;-74
2023/09/26 02:31:56;;;;;;;0.50;0.50;;;12.20;99.90;;;;;;5093061;28;20138;-75
2023/09/26 02:34:25;;;;;;;0.57;0.57;;;12.20;99.90;;;;;;5093158;28;20043;-75
2023/09/26 02:36:50;;;;;;;0.85;0.85;;;12.20;99.90;;;;;;5093096;28;20044;-74
2023/09/26 02:39:17;;;;;;;0.67;0.57;;;12.20;99.90;;;;;;5093094;28;20078;-75
2023/09/26 02:41:43;;;;;;;0.40;0.40;;;12.20;99.90;;;;;;5093121;28;20044;-74
2023/09/26 02:44:08;;;;;;;0.40;0.40;;;12.10;99.90;;;;;;5093089;28;20158;-73
2023/09/26 02:46:34;;;;;;;0.50;0.50;;;12.10;99.90;;;;;;5095181;28;20038;-74
2023/09/26 02:49:00;;;;;;;0.65;0.65;;;12.40;99.90;;;;;;5096625;28;20426;-76
2023/09/26 02:51:26;;;;;;;0.60;0.60;;;12.00;99.90;;;;;;5096655;28;20077;-76
2023/09/26 02:53:52;;;;;;;0.65;0.50;;;11.90;99.90;;;;;;5096786;28;20048;-73
2023/09/26 02:56:18;;;;;;;1.23;0.70;;;11.90;99.90;;;;;;5096612;28;20189;-72
2023/09/26 02:58:43;;;;;;;0.40;0.40;;;11.90;99.90;;;;;;5096480;28;20040;-74
2023/09/26 03:01:18;;;;;;;0.65;0.50;;;11.90;99.90;;;;;;5096842;28;20080;-73
2023/09/26 03:03:44;;;;;;;0.35;0.35;;;12.00;99.90;;;;;;5096347;28;20043;-75
2023/09/26 03:06:09;;;;;;;0.53;0.53;;;12.00;99.90;;;;;;5096122;28;20032;-76
2023/09/26 03:08:35;;;;;;;0.50;0.50;;;11.90;99.90;;;;;;5096087;28;20052;-75
2023/09/26 03:11:01;;;;;;;0.57;0.57;;;11.90;99.90;;;;;;5096154;28;20036;-73
2023/09/26 03:13:33;;;;;;;0.40;0.40;;;11.90;99.90;;;;;;5096217;28;20036;-73
2023/09/26 03:15:59;;;;;;;0.40;0.40;;;11.90;99.90;;;;;;5096194;28;20442;-75
2023/09/26 03:18:26;;;;;;;0.40;0.40;;;11.90;99.90;;;;;;5096006;28;20364;-75
2023/09/26 03:20:52;;;;;;;0.50;0.50;;;12.50;99.90;;;;;;5096063;28;20028;-75
2023/09/26 03:23:21;;;;;;;0.88;0.57;;;11.80;99.90;;;;;;5096023;28;20047;-73
2023/09/26 03:25:47;;;;;;;1.30;0.65;;;11.80;99.90;;;;;;5095932;28;20040;-74
2023/09/26 03:28:12;;;;;;;0.70;0.70;;;11.80;99.90;;;;;;5095612;28;20055;-76
2023/09/26 03:30:43;;;;;;;0.50;0.50;;;11.90;99.90;;;;;;5095523;28;20036;-75
2023/09/26 03:33:10;;;;;;;0.65;0.65;;;11.80;99.90;;;;;;5095467;28;20043;-73
2023/09/26 03:35:35;;;;;;;0.47;0.47;;;11.80;99.90;;;;;;5095793;28;20089;-76
2023/09/26 03:38:01;;;;;;;0.60;0.60;;;11.80;99.90;;;;;;5095450;28;20487;-73
2023/09/26 03:40:27;;;;;;;0.50;0.50;;;11.80;99.90;;;;;;5095475;28;20079;-73
2023/09/26 03:42:53;;;;;;;0.50;0.50;;;11.70;99.90;;;;;;5095707;28;20043;-76
2023/09/26 03:45:18;;;;;;;0.40;0.40;;;11.70;99.90;;;;;;5095577;28;20438;-77
2023/09/26 03:47:44;;;;;;;0.65;0.65;;;11.70;99.90;;;;;;5095748;28;20048;-76
2023/09/26 03:50:10;;;;;;;0.40;0.40;;;11.70;99.90;;;;;;5095228;28;20036;-73
2023/09/26 03:52:35;;;;;;;0.40;0.40;;;11.70;99.90;;;;;;5095447;28;20043;-74
2023/09/26 03:55:02;;;;;;;0.55;0.55;;;11.60;99.90;;;;;;5095492;28;20472;-74
2023/09/26 03:57:30;;;;;;;0.60;0.60;;;11.60;99.90;;;;;;5094903;28;20122;-73
2023/09/26 03:59:56;;;;;;;0.45;0.45;;;11.60;99.90;;;;;;5095280;28;20376;-76
2023/09/26 04:02:22;;;;;;;0.47;0.47;;;11.50;99.90;;;;;;5095235;28;20044;-74
2023/09/26 04:04:48;;;;;;;2.50;1.57;;;11.50;99.90;;;;;;5095212;28;20035;-75
2023/09/26 04:07:14;;;;;;;0.83;0.50;;;11.50;99.90;;;;;;5094956;28;20051;-76
2023/09/26 04:09:39;;;;;;;2.43;2.33;;;11.50;99.90;;;;;;5095273;28;20056;-75
2023/09/26 04:12:06;;;;;;;0.70;0.63;;;11.50;99.90;;;;;;5094940;28;20051;-74
2023/09/26 04:14:32;;;;;;;0.68;0.68;;;11.40;99.90;;;;;;5094907;28;20044;-76
2023/09/26 04:16:57;;;;;;;0.40;0.40;;;11.40;99.90;;;;;;5095383;28;20047;-74
2023/09/26 04:19:23;;;;;;;0.40;0.40;;;11.50;99.90;;;;;;5095032;28;20056;-75
2023/09/26 04:21:52;;;;;;;0.50;0.50;;;11.40;99.90;;;;;;5094724;28;20468;-75
2023/09/26 04:24:19;;;;;;;0.40;0.40;;;11.40;99.90;;;;;;5094666;28;20404;-74
2023/09/26 04:26:45;;;;;;;0.60;0.60;;;11.30;99.90;;;;;;5094754;28;20122;-74
2023/09/26 04:29:11;;;;;;;0.77;0.70;;;11.30;99.90;;;;;;5094489;28;20135;-75
2023/09/26 04:31:37;;;;;;;0.50;0.50;;;11.30;99.90;;;;;;5095053;28;20387;-76
2023/09/26 04:34:02;;;;;;;0.85;0.70;;;11.30;99.90;;;;;;5094632;28;20126;-74
2023/09/26 04:36:31;;;;;;;0.50;0.50;;;11.30;99.90;;;;;;5094694;28;20074;-74
2023/09/26 04:38:57;;;;;;;0.40;0.40;;;11.30;99.90;;;;;;5094555;28;20039;-75
2023/09/26 04:41:23;;;;;;;0.63;0.53;;;11.20;99.90;;;;;;5094547;28;20128;-74
2023/09/26 04:43:48;;;;;;;0.60;0.60;;;11.20;99.90;;;;;;5094373;28;20035;-73
2023/09/26 04:46:17;;;;;;;0.50;0.50;;;11.20;99.90;;;;;;5094456;28;20154;-73
2023/09/26 04:48:44;;;;;;;0.50;0.50;;;11.20;99.90;;;;;;5094291;28;20405;-74
2023/09/26 04:51:14;;;;;;;0.50;0.50;;;11.20;99.90;;;;;;5094530;28;20405;-74
2023/09/26 04:53:40;;;;;;;0.40;0.40;;;11.30;99.90;;;;;;5094440;28;20440;-73
2023/09/26 04:56:09;;;;;;;0.50;0.50;;;11.30;99.90;;;;;;5094220;28;20052;-73
2023/09/26 04:58:35;;;;;;;0.52;0.52;;;11.30;99.90;;;;;;5094396;28;20062;-73
2023/09/26 05:01:13;;;;;;;0.43;0.43;;;11.30;99.90;;;;;;5094213;28;20035;-75
2023/09/26 05:03:39;;;;;;;0.50;0.50;;;11.30;99.90;;;;;;5094542;28;20040;-71
2023/09/26 05:06:07;;;;;;;0.40;0.40;;;11.30;99.90;;;;;;5094130;28;20043;-77
2023/09/26 05:08:32;;;;;;;0.50;0.50;;;11.70;99.90;;;;;;5092911;28;20044;-78
2023/09/26 05:10:58;;;;;;;0.68;0.60;;;11.30;99.90;;;;;;5093963;28;20189;-71
2023/09/26 05:13:24;;;;;;;0.50;0.50;;;11.30;99.90;;;;;;5094384;28;20475;-74
2023/09/26 05:15:49;;;;;;;0.60;0.60;;;11.30;99.90;;;;;;5093963;28;20032;-74
2023/09/26 05:18:15;;;;;;;0.40;0.40;;;11.40;99.90;;;;;;5092796;28;20387;-73
2023/09/26 05:20:41;;;;;;;0.73;0.73;;;11.50;99.90;;;;;;5093774;28;20459;-74
2023/09/26 05:23:07;;;;;;;0.68;0.68;;;11.50;99.90;;;;;;5093667;28;20281;-76
2023/09/26 05:25:35;;;;;;;1.23;0.60;;;11.50;99.90;;;;;;5093556;28;20113;-70
2023/09/26 05:28:01;;;;;;;0.40;0.40;;;11.50;99.90;;;;;;5093256;28;20127;-70
2023/09/26 05:30:27;;;;;;;0.40;0.40;;;11.50;99.90;;;;;;5093837;28;20119;-70
2023/09/26 05:32:52;;;;;;;0.75;0.75;;;11.50;99.90;;;;;;5093751;28;20410;-74
2023/09/26 05:35:18;;;;;;;0.40;0.40;;;11.60;99.90;;;;;;5093757;28;20084;-73
2023/09/26 05:37:44;;;;;;;0.50;0.50;;;11.60;99.90;;;;;;5093764;28;20128;-74
2023/09/26 05:40:10;;;;;;;0.57;0.57;;;11.70;99.90;;;;;;5093572;28;20119;-74
2023/09/26 05:42:37;;;;;;;0.50;0.50;;;11.70;99.90;;;;;;5093669;28;20040;-75
2023/09/26 05:45:05;;;;;;;0.50;0.50;;;11.90;99.90;;;;;;5093464;28;20309;-74
2023/09/26 05:47:30;;;;;;;0.60;0.60;;;11.80;99.90;;;;;;5093721;28;20044;-76
2023/09/26 05:49:56;;;;;;;0.40;0.40;;;11.90;99.90;;;;;;5093483;28;20063;-75
2023/09/26 05:52:22;;;;;;;0.50;0.50;;;11.90;99.90;;;;;;5093292;28;20087;-75
2023/09/26 05:54:47;;;;;;;0.50;0.50;;;11.90;99.90;;;;;;5093407;28;20085;-75
2023/09/26 05:57:16;;;;;;;0.68;0.68;;;12.00;99.90;;;;;;5093264;28;20047;-74
2023/09/26 05:59:42;;;;;;;0.77;0.77;;;12.10;99.90;;;;;;5093343;28;20137;-75
2023/09/26 06:02:11;;;;;;;0.60;0.60;;;12.10;99.90;;;;;;5093461;28;20082;-75
2023/09/26 06:04:41;;;;;;;0.68;0.68;;;12.10;99.90;;;;;;5093407;28;20047;-76
2023/09/26 06:07:07;;;;;;;0.50;0.50;;;12.10;99.90;;;;;;5093320;28;20044;-76
2023/09/26 06:09:32;;;;;;;1.80;0.80;;;12.10;99.90;;;;;;5092887;28;20491;-74
2023/09/26 06:11:58;;;;;;;0.60;0.60;;;12.20;99.90;;;;;;5093333;28;20081;-73
2023/09/26 06:14:23;;;;;;;0.50;0.50;;;12.20;99.90;;;;;;5092923;28;20043;-73
2023/09/26 06:16:49;;;;;;;0.80;0.80;;;12.30;99.90;;;;;;5093528;28;20043;-75
2023/09/26 06:19:15;;;;;;;0.82;0.77;;;12.30;99.90;;;;;;5093250;28;20044;-73
2023/09/26 06:21:42;;;;;;;1.88;1.15;;;12.30;99.90;;;;;;5096687;28;20040;-73
2023/09/26 06:24:09;;;;;;;0.65;0.60;;;12.40;99.90;;;;;;5097310;28;20047;-73
2023/09/26 06:26:35;;;;;;;0.50;0.50;;;12.40;99.90;;;;;;5097183;28;20349;-72
2023/09/26 06:29:00;;;;;;;0.93;0.93;;;12.50;99.90;;;;;;5097356;28;20096;-72
2023/09/26 06:31:26;;;;;;;0.90;0.88;;;12.50;99.90;;;;;;5096902;28;20495;-73
2023/09/26 06:33:52;;;;;;;1.25;0.70;;;12.50;99.90;;;;;;5097202;28;20040;-75
2023/09/26 06:36:19;;;;;;;0.50;0.50;;;12.50;99.90;;;;;;5096897;28;20465;-71
2023/09/26 06:38:44;;;;;;;0.60;0.60;;;12.50;99.90;;;;;;5096772;28;20278;-72
2023/09/26 06:41:10;;;;;;;0.50;0.50;;;12.90;99.90;;;;;;5096837;28;20092;-71
2023/09/26 06:43:38;;;;;;;0.60;0.60;;;12.60;99.90;;;;;;5096854;28;20140;-71
2023/09/26 06:46:08;;;;;;;0.45;0.45;;;12.60;99.90;;;;;;5096634;28;20121;-70
2023/09/26 06:48:41;;;;;;;0.88;0.80;;;12.60;99.90;;;;;;5096679;28;20040;-70
2023/09/26 06:51:08;;;;;;;1.67;0.60;;;12.60;99.90;;;;;;5096634;28;20096;-72
2023/09/26 06:53:34;;;;;;;1.17;0.60;;;12.70;99.90;;;;;;5096579;28;20048;-72
2023/09/26 06:56:05;;;;;;;0.65;0.65;;;12.60;99.90;;;;;;5096927;28;20065;-75
2023/09/26 06:58:31;;;;;;;0.50;0.50;;;12.60;99.90;;;;;;5096560;28;20048;-71
2023/09/26 07:00:57;;;;;;;0.43;0.43;;;12.70;99.90;;;;;;5096773;28;20406;-73
2023/09/26 07:03:23;;;;;;;0.60;0.50;;;12.70;99.90;;;;;;5096423;28;20278;-72
2023/09/26 07:05:49;;;;;;;0.30;0.30;;;12.80;99.90;;;;;;5096336;28;20040;-71
2023/09/26 07:08:15;;;;;;;0.47;0.47;;;12.70;99.90;;;;;;5096290;28;20452;-73
2023/09/26 07:10:41;;;;;;;0.80;0.73;;;12.80;99.90;;;;;;5096230;28;20043;-74
2023/09/26 07:13:07;;;;;;;0.50;0.50;;;12.80;99.90;;;;;;5095045;28;20040;-73
2023/09/26 07:15:33;;;;;;;0.80;0.80;;;12.90;99.90;;;;;;5096243;28;20039;-75
2023/09/26 07:18:06;;;;;;;0.40;0.40;;;12.90;99.90;;;;;;5095683;28;20470;-74
2023/09/26 07:20:33;;;;;;;0.70;0.70;;;13.00;99.90;;;;;;5096075;28;20040;-75
2023/09/26 07:23:00;;;;;;;0.50;0.50;;;13.10;99.90;;;;;;5094961;28;20051;-73
2023/09/26 07:25:26;;;;;;;0.50;0.50;;;13.20;99.90;;;;;;5096033;28;20388;-75
2023/09/26 07:27:52;;;;;;;0.67;0.67;;;13.20;99.90;;;;;;5095984;28;20043;-74
2023/09/26 07:30:17;;;;;;;0.50;0.50;;;13.30;99.90;;;;;;5094717;28;20044;-72
2023/09/26 07:32:43;;;;;;;1.17;0.90;;;13.40;99.90;;;;;;5095011;28;20040;-73
2023/09/26 07:35:09;;;;;;;0.77;0.73;;;13.60;99.90;;;;;;5095697;28;20474;-73
2023/09/26 07:37:34;;;;;;;1.17;1.02;;;13.50;99.90;;;;;;5095790;28;20043;-73
2023/09/26 07:40:03;;;;;;;0.50;0.50;;;13.50;99.90;;;;;;5095699;28;20035;-75
2023/09/26 07:42:28;;;;;;;0.52;0.52;;;13.60;99.90;;;;;;5095656;28;20040;-75
2023/09/26 07:44:59;;;;;;;0.43;0.43;;;13.60;99.90;;;;;;5095683;28;20121;-75
2023/09/26 07:47:25;;;;;;;0.50;0.50;;;13.60;99.90;;;;;;5095536;28;20131;-75
2023/09/26 07:49:51;;;;;;;0.60;0.60;;;13.70;99.90;;;;;;5095556;28;20079;-73
2023/09/26 07:52:16;;;;;;;0.77;0.52;;;13.80;99.90;;;;;;5095765;28;20491;-74
2023/09/26 07:54:42;;;;;;;0.50;0.50;;;13.80;99.90;;;;;;5095386;28;20047;-75
2023/09/26 07:57:07;;;;;;;0.30;0.30;;;13.90;99.90;;;;;;5095429;28;20036;-75
2023/09/26 07:59:34;;;;;;;0.30;0.30;;;14.00;99.90;;;;;;5095323;28;20378;-75
2023/09/26 08:02:00;;;;;;;0.55;0.55;;;14.10;99.90;;;;;;5095231;28;20554;-75
2023/09/26 08:04:25;;;;;;;0.68;0.68;;;14.10;99.90;;;;;;5095184;28;20123;-74
2023/09/26 08:06:51;;;;;;;0.80;0.80;;;14.10;99.90;;;;;;5095588;28;20047;-74
2023/09/26 08:09:16;;;;;;;0.70;0.70;;;14.10;99.90;;;;;;5095237;28;20091;-71
2023/09/26 08:11:42;;;;;;;1.50;0.83;;;14.20;99.90;;;;;;5094924;28;20516;-70
2023/09/26 08:14:08;;;;;;;0.50;0.50;;;14.30;99.90;;;;;;5095054;28;20036;-70
2023/09/26 08:16:33;;;;;;;0.60;0.60;;;14.40;99.90;;;;;;5094960;28;20036;-70
2023/09/26 08:18:59;;;;;;;0.83;0.80;;;14.50;99.90;;;;;;5094886;28;20172;-70
2023/09/26 08:21:26;;;;;;;0.63;0.50;;;14.60;99.90;;;;;;5095299;28;20036;-70
2023/09/26 08:23:52;;;;;;;0.80;0.80;;;14.60;99.90;;;;;;5094813;28;20054;-70
2023/09/26 08:26:19;;;;;;;0.70;0.67;;;14.60;99.90;;;;;;5094837;28;20398;-69
2023/09/26 08:28:45;;;;;;;0.60;0.60;;;14.80;99.90;;;;;;5094955;28;20044;-76
2023/09/26 08:31:15;;;;;;;0.50;0.50;;;14.90;99.90;;;;;;5094705;28;20386;-75
2023/09/26 08:33:41;;;;;;;0.57;0.52;;;14.90;99.90;;;;;;5094629;28;20093;-76
2023/09/26 08:36:18;;;;;;;0.40;0.40;;;15.00;99.90;;;;;;5095058;28;20047;-76
2023/09/26 08:38:47;;;;;;;1.90;1.17;;;15.10;99.90;;;;;;5095101;28;20143;-73
2023/09/26 08:41:16;;;;;;;2.72;0.70;;;15.20;99.90;;;;;;5094528;28;20306;-73
2023/09/26 08:43:43;;;;;;;0.50;0.50;;;15.30;99.90;;;;;;5094418;28;20087;-73
2023/09/26 08:46:09;;;;;;;0.88;0.85;;;15.50;99.90;;;;;;5094345;28;20113;-73
2023/09/26 08:48:35;;;;;;;0.50;0.50;;;15.60;99.90;;;;;;5094797;28;20040;-70
2023/09/26 08:51:01;;;;;;;0.45;0.45;;;15.70;99.90;;;;;;5094362;28;20301;-73
2023/09/26 08:53:27;;;;;;;0.60;0.60;;;15.70;99.90;;;;;;5094677;28;20039;-73
2023/09/26 08:55:54;;;;;;;0.60;0.60;;;15.90;99.90;;;;;;5094476;28;20047;-73
2023/09/26 08:58:20;;;;;;;3.90;0.60;;;16.00;99.90;;;;;;5094272;28;20069;-74
2023/09/26 09:00:46;;;;;;;0.60;0.60;;;16.00;99.90;;;;;;5094262;28;20032;-73
2023/09/26 09:03:13;;;;;;;0.50;0.50;;;16.10;99.90;;;;;;5094100;28;20040;-75
2023/09/26 09:05:40;;;;;;;1.05;0.98;;;16.10;99.90;;;;;;5094546;28;20043;-75
2023/09/26 09:08:07;;;;;;;0.55;0.55;;;16.20;99.90;;;;;;5093762;28;20052;-74
2023/09/26 09:10:50;;;;;;;0.90;0.70;;;16.20;99.90;;;;;;5093716;28;20123;-73
2023/09/26 09:13:27;;;;;;;0.50;0.50;;;16.20;99.90;;;;;;5094002;28;20113;-72
2023/09/26 09:16:13;;;;;;;0.95;0.52;;;16.20;99.90;;;;;;5094345;28;20132;-75
2023/09/26 09:18:44;;;;;;;0.63;0.63;;;16.30;99.90;;;;;;5093988;28;20032;-74
2023/09/26 09:21:27;;;;;;;0.80;0.80;;;16.30;99.90;;;;;;5093932;28;20036;-77
2023/09/26 09:23:54;;;;;;;0.47;0.47;;;16.40;99.90;;;;;;5093841;28;20511;-74
2023/09/26 09:26:21;;;;;;;1.00;0.80;;;16.40;99.90;;;;;;5093616;28;20392;-74
2023/09/26 09:28:49;;;;;;;0.40;0.40;;;16.60;99.90;;;;;;5093864;28;20036;-74
2023/09/26 09:31:18;;;;;;;0.75;0.60;;;16.60;99.90;;;;;;5093956;28;20379;-74
2023/09/26 09:33:48;;;;;;;0.52;0.52;;;16.60;99.90;;;;;;5093586;28;20032;-73
2023/09/26 09:36:14;;;;;;;0.40;0.40;;;16.60;99.90;;;;;;5093595;28;20051;-74
2023/09/26 09:38:40;;;;;;;1.07;0.97;;;16.60;99.90;;;;;;5094158;28;20036;-74
2023/09/26 09:41:07;;;;;;;0.83;0.70;;;16.60;99.90;;;;;;5093852;28;20126;-73
2023/09/26 09:43:33;;;;;;;0.50;0.50;;;16.70;99.90;;;;;;5093643;28;20047;-73
2023/09/26 09:46:04;;;;;;;0.63;0.63;;;16.80;99.90;;;;;;5093492;28;20036;-73
2023/09/26 09:48:35;;;;;;;0.50;0.50;;;16.90;99.90;;;;;;5093424;28;20519;-73
2023/09/26 09:51:03;;;;;;;1.92;0.80;;;17.10;99.90;;;;;;5093461;28;20047;-77
2023/09/26 09:53:33;;;;;;;0.50;0.50;;;17.20;99.90;;;;;;5092355;28;20066;-74
2023/09/26 09:56:06;;;;;;;0.60;0.60;;;17.30;99.90;;;;;;5097126;28;20079;-73
2023/09/26 09:58:33;;;;;;;0.73;0.52;;;17.40;99.90;;;;;;5097897;28;20036;-69
2023/09/26 10:01:00;;;;;;;0.47;0.47;;;17.40;99.90;;;;;;5097679;28;20044;-73
2023/09/26 10:03:26;;;;;;;;;;;17.50;99.90;;;;;;5097679;28;20040;-75
2023/09/26 10:05:53;;;;;;;0.40;0.40;;;17.50;99.90;;;;;;5096335;28;19923;-74
2023/09/26 10:08:20;;;;;;;0.57;0.52;;;17.60;99.90;;;;;;5095323;28;20094;-74
2023/09/26 10:10:46;;;;;;;0.73;0.73;;;17.80;99.90;;;;;;5096890;28;20036;-75
2023/09/26 10:13:13;;;;;;;0.57;0.57;;;18.00;99.90;;;;;;5096215;28;20044;-73
2023/09/26 10:16:07;;;;;;;0.63;0.40;;;18.20;99.90;;;;;;5097327;28;20043;-72
2023/09/26 10:18:37;;;;;;;0.70;0.70;;;18.40;99.90;;;;;;5097721;28;20043;-72
2023/09/26 10:21:03;;;;;;;0.85;0.73;;;18.50;99.90;;;;;;5096058;28;20114;-73
2023/09/26 10:23:29;;;;;;;0.43;0.43;;;18.60;99.90;;;;;;5096919;28;20538;-74
2023/09/26 10:25:54;;;;;;;0.40;0.40;;;18.70;99.90;;;;;;5097059;28;20142;-74
2023/09/26 10:28:21;;;;;;;0.37;0.37;;;18.80;99.90;;;;;;5097023;28;20047;-75
2023/09/26 10:30:54;;;;;;;0.73;0.50;;;18.80;99.90;;;;;;5096959;28;20085;-74
2023/09/26 10:33:20;;;;;;;0.40;0.40;;;18.80;99.90;;;;;;5097076;28;20043;-75
2023/09/26 10:35:45;;;;;;;1.13;0.80;;;18.80;99.90;;;;;;5096951;28;20036;-75
2023/09/26 10:38:19;;;;;;;0.30;0.30;;;18.90;99.90;;;;;;5096884;28;20533;-74
2023/09/26 10:40:46;;;;;;;1.35;0.68;;;18.90;99.90;;;;;;5096824;28;20437;-74
2023/09/26 10:43:12;;;;;;;0.77;0.68;;;19.00;99.90;;;;;;5096445;28;20395;-73
2023/09/26 10:45:43;;;;;;;1.10;0.70;;;19.00;99.90;;;;;;5096824;28;20123;-75
2023/09/26 10:48:08;;;;;;;0.90;0.82;;;19.00;99.90;;;;;;5097279;28;20042;-74
2023/09/26 10:50:34;;;;;;;0.40;0.40;;;19.00;99.90;;;;;;5096866;28;20375;-73
2023/09/26 10:53:00;;;;;;;0.40;0.40;;;19.00;99.90;;;;;;5096652;28;20066;-72
2023/09/26 10:55:25;;;;;;;0.40;0.40;;;19.10;99.90;;;;;;5096608;28;20086;-76
2023/09/26 10:57:51;;;;;;;0.57;0.57;;;19.10;99.90;;;;;;5096471;28;20124;-73
2023/09/26 11:00:17;;;;;;;0.50;0.50;;;19.20;99.90;;;;;;5096711;28;20067;-74
2023/09/26 11:02:45;;;;;;;0.50;0.50;;;19.20;99.90;;;;;;5096498;28;20382;-73
2023/09/26 11:05:13;;;;;;;2.08;0.60;;;19.30;99.90;;;;;;5096376;28;20044;-73
2023/09/26 11:07:41;;;;;;;1.15;0.47;;;19.40;99.90;;;;;;5095057;28;20135;-73
2023/09/26 11:10:16;;;;;;;1.13;0.30;;;19.50;99.90;;;;;;5096259;28;20044;-74
2023/09/26 11:12:43;;;;;;;0.73;0.73;;;19.50;99.90;;;;;;5096209;28;20040;-72
2023/09/26 11:15:10;;;;;;;2.65;0.57;;;19.60;99.90;;;;;;5095483;28;20368;-73
2023/09/26 11:17:37;;;;;;;0.40;0.40;;;19.70;99.90;;;;;;5096480;28;20085;-76
2023/09/26 11:20:06;;;;;;;0.40;0.40;;;19.80;99.90;;;;;;5096080;28;20044;-75
2023/09/26 11:22:44;;;;;;;0.55;0.50;;;20.00;99.90;;;;;;5096195;28;20440;-73
2023/09/26 11:25:10;;;;;;;0.40;0.40;;;20.10;99.90;;;;;;5095758;28;20486;-74
2023/09/26 11:27:41;;;;;;;0.60;0.60;;;20.20;99.90;;;;;;5095994;28;20044;-74
2023/09/26 11:30:09;;;;;;;0.30;0.30;;;20.30;99.90;;;;;;5095892;28;20113;-74
2023/09/26 11:32:34;;;;;;;0.40;0.40;;;20.30;99.90;;;;;;5094903;28;20051;-74
2023/09/26 11:35:00;;;;;;;0.63;0.40;;;20.40;99.90;;;;;;5095941;28;20610;-75
2023/09/26 11:37:31;;;;;;;0.40;0.35;;;20.40;99.90;;;;;;5095781;28;20051;-74
2023/09/26 11:39:57;;;;;;;0.40;0.40;;;20.50;99.90;;;;;;5095578;28;20036;-75
2023/09/26 11:42:22;;;;;;;0.45;0.45;;;20.60;99.90;;;;;;5095487;28;20039;-73
2023/09/26 11:44:52;;;;;;;1.80;0.83;;;20.60;99.90;;;;;;5095998;28;20047;-74
2023/09/26 11:47:20;;;;;;;0.40;0.40;;;20.70;99.90;;;;;;5095571;28;20048;-73
2023/09/26 11:49:46;;;;;;;0.38;0.38;;;20.80;99.90;;;;;;5095491;28;20032;-75
2023/09/26 11:52:11;;;;;;;0.50;0.50;;;20.90;99.90;;;;;;5095112;28;20039;-73
2023/09/26 11:54:38;;;;;;;0.40;0.40;;;20.90;99.90;;;;;;5095365;28;20055;-75
2023/09/26 11:57:04;;;;;;;0.38;0.38;;;21.00;99.90;;;;;;5095393;28;20058;-73
2023/09/26 11:59:29;;;;;;;0.30;0.30;;;20.90;99.90;;;;;;5095067;28;20040;-74
2023/09/26 12:01:58;;;;;;;0.30;0.30;;;20.90;99.90;;;;;;5095202;28;20456;-75
2023/09/26 12:04:24;;;;;;;0.50;0.40;;;20.90;99.90;;;;;;5095259;28;20126;-75
2023/09/26 12:06:50;;;;;;;0.30;0.30;;;20.90;99.90;;;;;;5095055;28;20044;-77
2023/09/26 12:09:20;;;;;;;0.67;0.53;;;20.90;99.90;;;;;;5096093;28;20056;-74
2023/09/26 12:11:47;;;;;;;0.30;0.30;;;20.90;99.90;;;;;;5095133;28;20093;-76
2023/09/26 12:14:14;;;;;;;0.40;0.40;;;20.80;99.90;;;;;;5095319;28;20032;-73
2023/09/26 12:16:39;;;;;;;0.43;0.43;;;20.80;99.90;;;;;;5095164;28;20088;-74
2023/09/26 12:19:05;;;;;;;0.30;0.30;;;20.80;99.90;;;;;;5094670;28;20051;-75
2023/09/26 12:21:31;;;;;;;0.33;0.33;;;20.80;99.90;;;;;;5094856;28;20036;-75
2023/09/26 12:23:56;;;;;;;0.77;0.30;;;21.00;99.90;;;;;;5095066;28;20067;-76
2023/09/26 12:26:22;;;;;;;0.20;0.20;;;20.90;99.90;;;;;;5094850;28;20501;-73
2023/09/26 12:28:48;;;;;;;0.40;0.40;;;20.90;99.90;;;;;;5094738;28;20036;-75
2023/09/26 12:31:13;;;;;;;0.37;0.30;;;21.00;99.90;;;;;;5094767;28;20062;-72
2023/09/26 12:33:39;;;;;;;0.30;0.30;;;21.00;99.90;;;;;;5094528;28;20349;-75
2023/09/26 12:36:05;;;;;;;0.30;0.30;;;21.10;99.90;;;;;;5094893;28;20040;-73
2023/09/26 12:38:30;;;;;;;0.80;0.53;;;21.10;99.90;;;;;;5093365;28;20380;-75
2023/09/26 12:40:56;;;;;;;0.20;0.20;;;21.20;99.90;;;;;;5094491;28;20414;-73
2023/09/26 12:43:22;;;;;;;1.07;0.37;;;21.20;99.90;;;;;;5094522;28;20039;-72
2023/09/26 12:45:47;;;;;;;0.30;0.30;;;21.20;99.90;;;;;;5094709;28;20036;-76